sensor_id;sensor_type;location;lat;lon;timestamp;P1;durP1;ratioP1;P2;durP2;ratioP2
351;SDS011;164;50.784;6.496;2023-02-13T00:01:35;20.92;;;16.50;;
351;SDS011;164;50.784;6.496;2023-02-13T00:04:04;18.77;;;17.52;;
351;SDS011;164;50.784;6.496;2023-02-13T00:06:31;19.80;;;16.52;;
351;SDS011;164;50.784;6.496;2023-02-13T00:08:58;17.15;;;16.10;;
351;SDS011;164;50.784;6.496;2023-02-13T00:11:26;16.23;;;15.40;;
351;SDS011;164;50.784;6.496;2023-02-13T00:13:54;21.73;;;16.73;;
351;SDS011;164;50.784;6.496;2023-02-13T00:16:21;17.05;;;14.82;;
351;SDS011;164;50.784;6.496;2023-02-13T00:18:49;18.65;;;16.02;;
351;SDS011;164;50.784;6.496;2023-02-13T00:21:17;17.85;;;16.63;;
351;SDS011;164;50.784;6.496;2023-02-13T00:23:44;19.10;;;16.40;;
351;SDS011;164;50.784;6.496;2023-02-13T00:26:12;20.85;;;18.15;;
351;SDS011;164;50.784;6.496;2023-02-13T00:28:40;18.38;;;15.70;;
351;SDS011;164;50.784;6.496;2023-02-13T00:31:08;18.42;;;15.68;;
351;SDS011;164;50.784;6.496;2023-02-13T00:33:36;21.33;;;17.60;;
351;SDS011;164;50.784;6.496;2023-02-13T00:36:06;18.05;;;17.13;;
351;SDS011;164;50.784;6.496;2023-02-13T00:38:36;22.30;;;17.45;;
351;SDS011;164;50.784;6.496;2023-02-13T00:41:03;18.75;;;17.45;;
351;SDS011;164;50.784;6.496;2023-02-13T00:43:31;17.83;;;16.17;;
351;SDS011;164;50.784;6.496;2023-02-13T00:45:59;21.92;;;17.92;;
351;SDS011;164;50.784;6.496;2023-02-13T00:48:26;18.73;;;17.80;;
351;SDS011;164;50.784;6.496;2023-02-13T00:50:54;19.25;;;18.23;;
351;SDS011;164;50.784;6.496;2023-02-13T00:53:22;17.25;;;16.35;;
351;SDS011;164;50.784;6.496;2023-02-13T00:55:51;20.88;;;18.52;;
351;SDS011;164;50.784;6.496;2023-02-13T00:58:18;19.90;;;17.17;;
351;SDS011;164;50.784;6.496;2023-02-13T01:00:45;19.70;;;17.95;;
351;SDS011;164;50.784;6.496;2023-02-13T01:03:13;17.75;;;16.23;;
351;SDS011;164;50.784;6.496;2023-02-13T01:05:40;20.73;;;17.15;;
351;SDS011;164;50.784;6.496;2023-02-13T01:08:07;20.25;;;17.45;;
351;SDS011;164;50.784;6.496;2023-02-13T01:10:35;18.45;;;17.55;;
351;SDS011;164;50.784;6.496;2023-02-13T01:13:04;19.38;;;16.75;;
351;SDS011;164;50.784;6.496;2023-02-13T01:15:32;17.77;;;16.45;;
351;SDS011;164;50.784;6.496;2023-02-13T01:17:59;20.77;;;18.00;;
351;SDS011;164;50.784;6.496;2023-02-13T01:20:26;20.25;;;17.42;;
351;SDS011;164;50.784;6.496;2023-02-13T01:22:54;18.35;;;16.05;;
351;SDS011;164;50.784;6.496;2023-02-13T01:25:21;18.50;;;16.48;;
351;SDS011;164;50.784;6.496;2023-02-13T01:27:48;18.95;;;17.05;;
351;SDS011;164;50.784;6.496;2023-02-13T01:30:17;20.08;;;15.60;;
351;SDS011;164;50.784;6.496;2023-02-13T01:32:45;21.48;;;17.67;;
351;SDS011;164;50.784;6.496;2023-02-13T01:35:13;21.77;;;17.55;;
351;SDS011;164;50.784;6.496;2023-02-13T01:37:41;21.55;;;17.35;;
351;SDS011;164;50.784;6.496;2023-02-13T01:40:09;18.58;;;17.70;;
351;SDS011;164;50.784;6.496;2023-02-13T01:42:37;18.58;;;16.92;;
351;SDS011;164;50.784;6.496;2023-02-13T01:45:05;19.98;;;16.02;;
351;SDS011;164;50.784;6.496;2023-02-13T01:47:39;22.92;;;18.13;;
351;SDS011;164;50.784;6.496;2023-02-13T01:50:08;19.02;;;16.52;;
351;SDS011;164;50.784;6.496;2023-02-13T01:52:37;18.73;;;16.30;;
351;SDS011;164;50.784;6.496;2023-02-13T01:55:06;17.38;;;15.93;;
351;SDS011;164;50.784;6.496;2023-02-13T01:57:34;16.55;;;15.75;;
351;SDS011;164;50.784;6.496;2023-02-13T02:00:05;18.70;;;16.45;;
351;SDS011;164;50.784;6.496;2023-02-13T02:02:35;20.70;;;16.92;;
351;SDS011;164;50.784;6.496;2023-02-13T02:05:03;16.98;;;16.00;;
351;SDS011;164;50.784;6.496;2023-02-13T02:07:32;21.13;;;17.50;;
351;SDS011;164;50.784;6.496;2023-02-13T02:09:59;21.17;;;18.00;;
351;SDS011;164;50.784;6.496;2023-02-13T02:12:30;21.10;;;17.83;;
351;SDS011;164;50.784;6.496;2023-02-13T02:14:59;20.30;;;16.30;;
351;SDS011;164;50.784;6.496;2023-02-13T02:17:27;18.92;;;15.90;;
351;SDS011;164;50.784;6.496;2023-02-13T02:19:58;18.60;;;16.58;;
351;SDS011;164;50.784;6.496;2023-02-13T02:22:34;18.35;;;16.73;;
351;SDS011;164;50.784;6.496;2023-02-13T02:28:09;19.27;;;17.13;;
351;SDS011;164;50.784;6.496;2023-02-13T02:33:27;19.45;;;17.17;;
351;SDS011;164;50.784;6.496;2023-02-13T02:36:00;17.90;;;16.40;;
351;SDS011;164;50.784;6.496;2023-02-13T02:38:36;22.42;;;18.15;;
351;SDS011;164;50.784;6.496;2023-02-13T02:41:07;19.88;;;17.75;;
351;SDS011;164;50.784;6.496;2023-02-13T02:43:41;20.83;;;17.80;;
351;SDS011;164;50.784;6.496;2023-02-13T02:46:12;22.88;;;18.95;;
351;SDS011;164;50.784;6.496;2023-02-13T02:48:45;20.45;;;17.00;;
351;SDS011;164;50.784;6.496;2023-02-13T02:51:34;19.35;;;16.55;;
351;SDS011;164;50.784;6.496;2023-02-13T02:54:05;18.90;;;16.90;;
351;SDS011;164;50.784;6.496;2023-02-13T02:56:56;19.60;;;16.63;;
351;SDS011;164;50.784;6.496;2023-02-13T02:59:24;20.88;;;18.33;;
351;SDS011;164;50.784;6.496;2023-02-13T03:02:09;19.33;;;17.23;;
351;SDS011;164;50.784;6.496;2023-02-13T03:04:55;19.83;;;16.88;;
351;SDS011;164;50.784;6.496;2023-02-13T03:07:41;19.35;;;17.38;;
351;SDS011;164;50.784;6.496;2023-02-13T03:10:10;20.10;;;18.13;;
351;SDS011;164;50.784;6.496;2023-02-13T03:13:01;22.02;;;18.42;;
351;SDS011;164;50.784;6.496;2023-02-13T03:15:48;19.55;;;16.17;;
351;SDS011;164;50.784;6.496;2023-02-13T03:18:34;17.60;;;16.25;;
351;SDS011;164;50.784;6.496;2023-02-13T03:21:23;21.33;;;18.63;;
351;SDS011;164;50.784;6.496;2023-02-13T03:24:06;20.50;;;17.55;;
351;SDS011;164;50.784;6.496;2023-02-13T03:26:37;19.08;;;17.95;;
351;SDS011;164;50.784;6.496;2023-02-13T03:29:17;24.38;;;19.50;;
351;SDS011;164;50.784;6.496;2023-02-13T03:32:06;20.00;;;18.25;;
351;SDS011;164;50.784;6.496;2023-02-13T03:34:37;22.60;;;19.30;;
351;SDS011;164;50.784;6.496;2023-02-13T03:37:26;22.17;;;17.42;;
351;SDS011;164;50.784;6.496;2023-02-13T03:40:20;21.95;;;18.13;;
351;SDS011;164;50.784;6.496;2023-02-13T03:42:51;20.95;;;16.95;;
351;SDS011;164;50.784;6.496;2023-02-13T03:45:20;21.63;;;17.55;;
351;SDS011;164;50.784;6.496;2023-02-13T03:48:06;21.15;;;17.80;;
351;SDS011;164;50.784;6.496;2023-02-13T03:50:55;22.42;;;16.52;;
351;SDS011;164;50.784;6.496;2023-02-13T03:53:23;19.23;;;15.70;;
351;SDS011;164;50.784;6.496;2023-02-13T03:55:51;21.30;;;17.15;;
351;SDS011;164;50.784;6.496;2023-02-13T03:58:38;19.58;;;16.83;;
351;SDS011;164;50.784;6.496;2023-02-13T04:01:25;22.80;;;17.65;;
351;SDS011;164;50.784;6.496;2023-02-13T04:03:55;23.77;;;17.77;;
351;SDS011;164;50.784;6.496;2023-02-13T04:06:25;21.50;;;17.60;;
351;SDS011;164;50.784;6.496;2023-02-13T04:08:54;21.55;;;17.40;;
351;SDS011;164;50.784;6.496;2023-02-13T04:11:23;22.42;;;17.67;;
351;SDS011;164;50.784;6.496;2023-02-13T04:13:54;22.20;;;18.80;;
351;SDS011;164;50.784;6.496;2023-02-13T04:16:22;21.33;;;19.42;;
351;SDS011;164;50.784;6.496;2023-02-13T04:18:54;22.17;;;18.45;;
351;SDS011;164;50.784;6.496;2023-02-13T04:21:22;24.27;;;18.52;;
351;SDS011;164;50.784;6.496;2023-02-13T04:23:50;26.52;;;20.23;;
351;SDS011;164;50.784;6.496;2023-02-13T04:26:19;23.50;;;19.80;;
351;SDS011;164;50.784;6.496;2023-02-13T04:28:47;24.48;;;20.17;;
351;SDS011;164;50.784;6.496;2023-02-13T04:31:14;22.42;;;20.23;;
351;SDS011;164;50.784;6.496;2023-02-13T04:33:42;24.30;;;17.85;;
351;SDS011;164;50.784;6.496;2023-02-13T04:41:49;25.15;;;20.17;;
351;SDS011;164;50.784;6.496;2023-02-13T04:44:16;24.98;;;20.02;;
351;SDS011;164;50.784;6.496;2023-02-13T04:46:43;23.75;;;20.10;;
351;SDS011;164;50.784;6.496;2023-02-13T04:49:11;25.15;;;19.92;;
351;SDS011;164;50.784;6.496;2023-02-13T04:51:38;26.58;;;19.90;;
351;SDS011;164;50.784;6.496;2023-02-13T04:54:05;25.50;;;19.45;;
351;SDS011;164;50.784;6.496;2023-02-13T04:56:32;27.05;;;21.52;;
351;SDS011;164;50.784;6.496;2023-02-13T04:59:01;25.92;;;20.33;;
351;SDS011;164;50.784;6.496;2023-02-13T05:01:28;26.33;;;21.45;;
351;SDS011;164;50.784;6.496;2023-02-13T05:03:55;25.38;;;19.20;;
351;SDS011;164;50.784;6.496;2023-02-13T05:06:22;22.17;;;19.80;;
351;SDS011;164;50.784;6.496;2023-02-13T05:08:50;23.52;;;20.10;;
351;SDS011;164;50.784;6.496;2023-02-13T05:11:17;23.33;;;19.90;;
351;SDS011;164;50.784;6.496;2023-02-13T05:13:45;24.17;;;18.65;;
351;SDS011;164;50.784;6.496;2023-02-13T05:16:14;24.15;;;19.58;;
351;SDS011;164;50.784;6.496;2023-02-13T05:18:41;24.88;;;20.67;;
351;SDS011;164;50.784;6.496;2023-02-13T05:21:09;22.30;;;17.80;;
351;SDS011;164;50.784;6.496;2023-02-13T05:23:53;21.92;;;19.00;;
351;SDS011;164;50.784;6.496;2023-02-13T05:26:20;18.65;;;17.05;;
351;SDS011;164;50.784;6.496;2023-02-13T05:28:48;20.52;;;17.00;;
351;SDS011;164;50.784;6.496;2023-02-13T05:31:34;21.48;;;18.17;;
351;SDS011;164;50.784;6.496;2023-02-13T05:34:01;24.35;;;18.23;;
351;SDS011;164;50.784;6.496;2023-02-13T05:36:29;23.95;;;19.05;;
351;SDS011;164;50.784;6.496;2023-02-13T05:38:56;21.08;;;17.92;;
351;SDS011;164;50.784;6.496;2023-02-13T05:46:37;23.45;;;19.33;;
351;SDS011;164;50.784;6.496;2023-02-13T05:49:04;23.58;;;18.75;;
351;SDS011;164;50.784;6.496;2023-02-13T05:51:31;21.60;;;16.80;;
351;SDS011;164;50.784;6.496;2023-02-13T05:53:58;20.75;;;17.13;;
351;SDS011;164;50.784;6.496;2023-02-13T05:56:26;21.48;;;17.45;;
351;SDS011;164;50.784;6.496;2023-02-13T05:58:53;22.27;;;16.90;;
351;SDS011;164;50.784;6.496;2023-02-13T06:01:21;23.50;;;19.48;;
351;SDS011;164;50.784;6.496;2023-02-13T06:03:49;23.60;;;17.58;;
351;SDS011;164;50.784;6.496;2023-02-13T06:06:16;23.35;;;19.02;;
351;SDS011;164;50.784;6.496;2023-02-13T06:08:44;17.00;;;13.73;;
351;SDS011;164;50.784;6.496;2023-02-13T06:11:11;23.60;;;18.27;;
351;SDS011;164;50.784;6.496;2023-02-13T06:13:38;25.08;;;18.75;;
351;SDS011;164;50.784;6.496;2023-02-13T06:16:05;20.63;;;18.00;;
351;SDS011;164;50.784;6.496;2023-02-13T06:18:33;22.02;;;17.75;;
351;SDS011;164;50.784;6.496;2023-02-13T06:21:01;22.85;;;16.35;;
351;SDS011;164;50.784;6.496;2023-02-13T06:23:32;21.55;;;18.92;;
351;SDS011;164;50.784;6.496;2023-02-13T06:26:00;19.52;;;17.25;;
351;SDS011;164;50.784;6.496;2023-02-13T06:28:27;19.67;;;16.88;;
351;SDS011;164;50.784;6.496;2023-02-13T06:30:54;25.27;;;22.58;;
351;SDS011;164;50.784;6.496;2023-02-13T06:33:22;29.48;;;26.27;;
351;SDS011;164;50.784;6.496;2023-02-13T06:35:49;19.80;;;18.40;;
351;SDS011;164;50.784;6.496;2023-02-13T06:38:18;21.40;;;18.17;;
351;SDS011;164;50.784;6.496;2023-02-13T06:40:45;24.05;;;16.65;;
351;SDS011;164;50.784;6.496;2023-02-13T06:43:13;21.33;;;16.50;;
351;SDS011;164;50.784;6.496;2023-02-13T06:45:40;21.42;;;16.88;;
351;SDS011;164;50.784;6.496;2023-02-13T06:48:07;19.83;;;17.25;;
351;SDS011;164;50.784;6.496;2023-02-13T06:50:35;19.45;;;16.25;;
351;SDS011;164;50.784;6.496;2023-02-13T06:53:02;19.38;;;16.80;;
351;SDS011;164;50.784;6.496;2023-02-13T06:55:30;18.80;;;16.17;;
351;SDS011;164;50.784;6.496;2023-02-13T06:57:58;21.15;;;17.63;;
351;SDS011;164;50.784;6.496;2023-02-13T07:00:25;16.70;;;12.98;;
351;SDS011;164;50.784;6.496;2023-02-13T07:02:52;18.65;;;16.38;;
351;SDS011;164;50.784;6.496;2023-02-13T07:05:19;21.73;;;18.80;;
351;SDS011;164;50.784;6.496;2023-02-13T07:07:46;26.52;;;22.15;;
351;SDS011;164;50.784;6.496;2023-02-13T07:10:13;18.75;;;15.70;;
351;SDS011;164;50.784;6.496;2023-02-13T07:12:42;17.40;;;15.07;;
351;SDS011;164;50.784;6.496;2023-02-13T07:15:09;18.65;;;16.27;;
351;SDS011;164;50.784;6.496;2023-02-13T07:17:37;21.80;;;16.38;;
351;SDS011;164;50.784;6.496;2023-02-13T07:20:04;18.83;;;14.80;;
351;SDS011;164;50.784;6.496;2023-02-13T07:22:32;21.27;;;16.73;;
351;SDS011;164;50.784;6.496;2023-02-13T07:24:59;23.75;;;18.60;;
351;SDS011;164;50.784;6.496;2023-02-13T07:27:27;21.00;;;15.93;;
351;SDS011;164;50.784;6.496;2023-02-13T07:29:55;19.00;;;17.02;;
351;SDS011;164;50.784;6.496;2023-02-13T07:32:23;17.77;;;14.43;;
351;SDS011;164;50.784;6.496;2023-02-13T07:34:50;17.80;;;16.02;;
351;SDS011;164;50.784;6.496;2023-02-13T07:37:17;18.90;;;16.38;;
351;SDS011;164;50.784;6.496;2023-02-13T07:39:44;18.00;;;15.30;;
351;SDS011;164;50.784;6.496;2023-02-13T07:42:12;19.02;;;16.08;;
351;SDS011;164;50.784;6.496;2023-02-13T07:44:39;18.73;;;15.30;;
351;SDS011;164;50.784;6.496;2023-02-13T07:47:07;17.20;;;15.38;;
351;SDS011;164;50.784;6.496;2023-02-13T07:49:35;16.92;;;13.80;;
351;SDS011;164;50.784;6.496;2023-02-13T07:52:02;19.08;;;15.75;;
351;SDS011;164;50.784;6.496;2023-02-13T07:54:29;19.92;;;15.52;;
351;SDS011;164;50.784;6.496;2023-02-13T07:56:56;18.60;;;13.80;;
351;SDS011;164;50.784;6.496;2023-02-13T07:59:24;18.65;;;15.35;;
351;SDS011;164;50.784;6.496;2023-02-13T08:01:51;16.50;;;12.88;;
351;SDS011;164;50.784;6.496;2023-02-13T08:04:20;17.95;;;15.85;;
351;SDS011;164;50.784;6.496;2023-02-13T08:06:47;19.27;;;17.40;;
351;SDS011;164;50.784;6.496;2023-02-13T08:09:17;20.60;;;18.42;;
351;SDS011;164;50.784;6.496;2023-02-13T08:12:03;17.50;;;14.90;;
351;SDS011;164;50.784;6.496;2023-02-13T08:14:31;16.40;;;14.38;;
351;SDS011;164;50.784;6.496;2023-02-13T08:16:58;19.40;;;16.02;;
351;SDS011;164;50.784;6.496;2023-02-13T08:19:27;22.30;;;16.80;;
351;SDS011;164;50.784;6.496;2023-02-13T08:21:54;17.13;;;16.08;;
351;SDS011;164;50.784;6.496;2023-02-13T08:24:22;19.25;;;15.95;;
351;SDS011;164;50.784;6.496;2023-02-13T08:26:49;20.50;;;16.08;;
351;SDS011;164;50.784;6.496;2023-02-13T08:29:16;16.17;;;15.40;;
351;SDS011;164;50.784;6.496;2023-02-13T08:31:44;15.75;;;14.38;;
351;SDS011;164;50.784;6.496;2023-02-13T08:34:11;16.25;;;14.63;;
351;SDS011;164;50.784;6.496;2023-02-13T08:36:40;18.42;;;16.52;;
351;SDS011;164;50.784;6.496;2023-02-13T08:39:07;17.48;;;16.58;;
351;SDS011;164;50.784;6.496;2023-02-13T08:41:35;19.40;;;17.15;;
351;SDS011;164;50.784;6.496;2023-02-13T08:44:02;17.88;;;16.98;;
351;SDS011;164;50.784;6.496;2023-02-13T08:46:29;20.50;;;17.63;;
351;SDS011;164;50.784;6.496;2023-02-13T08:48:56;19.05;;;16.52;;
351;SDS011;164;50.784;6.496;2023-02-13T08:51:23;18.33;;;16.58;;
351;SDS011;164;50.784;6.496;2023-02-13T08:53:52;18.40;;;16.77;;
351;SDS011;164;50.784;6.496;2023-02-13T08:56:19;16.50;;;15.70;;
351;SDS011;164;50.784;6.496;2023-02-13T08:58:47;18.50;;;17.48;;
351;SDS011;164;50.784;6.496;2023-02-13T09:01:15;18.10;;;15.93;;
351;SDS011;164;50.784;6.496;2023-02-13T09:03:42;19.00;;;17.42;;
351;SDS011;164;50.784;6.496;2023-02-13T09:06:09;19.27;;;15.60;;
351;SDS011;164;50.784;6.496;2023-02-13T09:08:36;17.48;;;16.58;;
351;SDS011;164;50.784;6.496;2023-02-13T09:11:05;18.23;;;17.05;;
351;SDS011;164;50.784;6.496;2023-02-13T09:13:33;19.38;;;16.85;;
351;SDS011;164;50.784;6.496;2023-02-13T09:16:01;18.98;;;17.95;;
351;SDS011;164;50.784;6.496;2023-02-13T09:18:28;18.90;;;16.30;;
351;SDS011;164;50.784;6.496;2023-02-13T09:20:56;16.73;;;15.50;;
351;SDS011;164;50.784;6.496;2023-02-13T09:23:24;19.77;;;16.33;;
351;SDS011;164;50.784;6.496;2023-02-13T09:25:51;17.77;;;16.90;;
351;SDS011;164;50.784;6.496;2023-02-13T09:28:20;17.00;;;15.55;;
351;SDS011;164;50.784;6.496;2023-02-13T09:30:47;16.50;;;14.95;;
351;SDS011;164;50.784;6.496;2023-02-13T09:33:14;17.70;;;16.35;;
351;SDS011;164;50.784;6.496;2023-02-13T09:35:42;16.95;;;16.05;;
351;SDS011;164;50.784;6.496;2023-02-13T09:38:09;18.05;;;17.15;;
351;SDS011;164;50.784;6.496;2023-02-13T09:40:38;15.82;;;15.05;;
351;SDS011;164;50.784;6.496;2023-02-13T09:43:10;15.02;;;14.23;;
351;SDS011;164;50.784;6.496;2023-02-13T09:45:40;17.65;;;16.40;;
351;SDS011;164;50.784;6.496;2023-02-13T09:48:08;17.33;;;15.18;;
351;SDS011;164;50.784;6.496;2023-02-13T09:50:36;15.85;;;15.02;;
351;SDS011;164;50.784;6.496;2023-02-13T09:53:04;15.25;;;14.45;;
351;SDS011;164;50.784;6.496;2023-02-13T09:55:33;17.98;;;15.13;;
351;SDS011;164;50.784;6.496;2023-02-13T09:58:04;17.00;;;15.80;;
351;SDS011;164;50.784;6.496;2023-02-13T10:00:34;15.82;;;15.02;;
351;SDS011;164;50.784;6.496;2023-02-13T10:03:10;15.95;;;15.15;;
351;SDS011;164;50.784;6.496;2023-02-13T10:05:49;16.17;;;14.38;;
351;SDS011;164;50.784;6.496;2023-02-13T10:08:24;16.33;;;15.48;;
351;SDS011;164;50.784;6.496;2023-02-13T10:10:59;13.95;;;13.25;;
351;SDS011;164;50.784;6.496;2023-02-13T10:13:36;15.80;;;14.80;;
351;SDS011;164;50.784;6.496;2023-02-13T10:16:07;14.70;;;13.95;;
351;SDS011;164;50.784;6.496;2023-02-13T10:18:40;14.40;;;13.70;;
351;SDS011;164;50.784;6.496;2023-02-13T10:21:08;12.73;;;12.05;;
351;SDS011;164;50.784;6.496;2023-02-13T10:23:38;14.07;;;13.38;;
351;SDS011;164;50.784;6.496;2023-02-13T10:26:10;14.23;;;13.45;;
351;SDS011;164;50.784;6.496;2023-02-13T10:28:39;12.25;;;11.65;;
351;SDS011;164;50.784;6.496;2023-02-13T10:31:08;11.65;;;11.05;;
351;SDS011;164;50.784;6.496;2023-02-13T10:33:39;12.38;;;11.77;;
351;SDS011;164;50.784;6.496;2023-02-13T10:36:12;12.45;;;10.95;;
351;SDS011;164;50.784;6.496;2023-02-13T10:38:42;12.70;;;12.05;;
351;SDS011;164;50.784;6.496;2023-02-13T10:46:23;11.75;;;11.23;;
351;SDS011;164;50.784;6.496;2023-02-13T10:48:58;14.13;;;12.80;;
351;SDS011;164;50.784;6.496;2023-02-13T10:51:29;12.32;;;11.75;;
351;SDS011;164;50.784;6.496;2023-02-13T10:56:42;11.95;;;11.35;;
351;SDS011;164;50.784;6.496;2023-02-13T10:59:17;12.35;;;11.50;;
351;SDS011;164;50.784;6.496;2023-02-13T11:01:50;10.40;;;9.88;;
351;SDS011;164;50.784;6.496;2023-02-13T11:04:19;9.55;;;8.95;;
351;SDS011;164;50.784;6.496;2023-02-13T11:06:50;10.05;;;9.50;;
351;SDS011;164;50.784;6.496;2023-02-13T11:09:18;10.50;;;9.95;;
351;SDS011;164;50.784;6.496;2023-02-13T11:11:46;13.25;;;12.27;;
351;SDS011;164;50.784;6.496;2023-02-13T11:14:14;10.88;;;10.30;;
351;SDS011;164;50.784;6.496;2023-02-13T11:16:46;12.30;;;11.65;;
351;SDS011;164;50.784;6.496;2023-02-13T11:19:21;13.80;;;13.10;;
351;SDS011;164;50.784;6.496;2023-02-13T11:21:49;10.40;;;9.88;;
351;SDS011;164;50.784;6.496;2023-02-13T11:24:20;9.93;;;9.43;;
351;SDS011;164;50.784;6.496;2023-02-13T11:26:51;10.25;;;9.77;;
351;SDS011;164;50.784;6.496;2023-02-13T11:29:21;10.80;;;9.95;;
351;SDS011;164;50.784;6.496;2023-02-13T11:31:59;10.00;;;9.50;;
351;SDS011;164;50.784;6.496;2023-02-13T11:34:29;10.20;;;9.73;;
351;SDS011;164;50.784;6.496;2023-02-13T11:37:06;10.25;;;9.40;;
351;SDS011;164;50.784;6.496;2023-02-13T11:39:39;10.35;;;9.60;;
351;SDS011;164;50.784;6.496;2023-02-13T11:42:09;9.93;;;9.43;;
351;SDS011;164;50.784;6.496;2023-02-13T11:44:38;11.55;;;10.55;;
351;SDS011;164;50.784;6.496;2023-02-13T11:47:07;9.95;;;9.35;;
351;SDS011;164;50.784;6.496;2023-02-13T11:49:36;9.65;;;9.15;;
351;SDS011;164;50.784;6.496;2023-02-13T11:52:04;9.73;;;9.23;;
351;SDS011;164;50.784;6.496;2023-02-13T11:54:32;9.98;;;9.48;;
351;SDS011;164;50.784;6.496;2023-02-13T11:57:01;10.15;;;9.60;;
351;SDS011;164;50.784;6.496;2023-02-13T11:59:30;11.80;;;10.80;;
351;SDS011;164;50.784;6.496;2023-02-13T12:02:01;12.25;;;10.20;;
351;SDS011;164;50.784;6.496;2023-02-13T12:04:29;9.43;;;8.93;;
351;SDS011;164;50.784;6.496;2023-02-13T12:06:59;14.73;;;11.20;;
351;SDS011;164;50.784;6.496;2023-02-13T12:09:27;12.23;;;10.63;;
351;SDS011;164;50.784;6.496;2023-02-13T12:11:56;12.75;;;11.45;;
351;SDS011;164;50.784;6.496;2023-02-13T12:14:24;10.40;;;9.20;;
351;SDS011;164;50.784;6.496;2023-02-13T12:16:53;9.23;;;8.75;;
351;SDS011;164;50.784;6.496;2023-02-13T12:19:22;9.98;;;9.48;;
351;SDS011;164;50.784;6.496;2023-02-13T12:21:55;9.40;;;8.90;;
351;SDS011;164;50.784;6.496;2023-02-13T12:24:33;9.25;;;8.73;;
351;SDS011;164;50.784;6.496;2023-02-13T12:27:07;11.02;;;10.43;;
351;SDS011;164;50.784;6.496;2023-02-13T12:29:44;9.38;;;8.07;;
351;SDS011;164;50.784;6.496;2023-02-13T12:32:16;8.85;;;8.35;;
351;SDS011;164;50.784;6.496;2023-02-13T12:34:53;8.98;;;8.48;;
351;SDS011;164;50.784;6.496;2023-02-13T12:37:28;8.98;;;8.48;;
351;SDS011;164;50.784;6.496;2023-02-13T12:40:01;10.45;;;9.25;;
351;SDS011;164;50.784;6.496;2023-02-13T12:42:36;7.97;;;7.63;;
351;SDS011;164;50.784;6.496;2023-02-13T12:45:21;10.02;;;9.40;;
351;SDS011;164;50.784;6.496;2023-02-13T12:47:58;10.70;;;10.10;;
351;SDS011;164;50.784;6.496;2023-02-13T12:50:29;10.60;;;8.02;;
351;SDS011;164;50.784;6.496;2023-02-13T12:53:08;9.23;;;8.73;;
351;SDS011;164;50.784;6.496;2023-02-13T12:55:47;9.60;;;9.07;;
351;SDS011;164;50.784;6.496;2023-02-13T12:58:25;8.95;;;8.45;;
351;SDS011;164;50.784;6.496;2023-02-13T13:00:57;11.13;;;10.50;;
351;SDS011;164;50.784;6.496;2023-02-13T13:03:30;10.13;;;9.63;;
351;SDS011;164;50.784;6.496;2023-02-13T13:06:02;13.32;;;10.43;;
351;SDS011;164;50.784;6.496;2023-02-13T13:08:33;11.32;;;10.65;;
351;SDS011;164;50.784;6.496;2023-02-13T13:11:10;9.32;;;8.82;;
351;SDS011;164;50.784;6.496;2023-02-13T13:13:42;10.93;;;10.32;;
351;SDS011;164;50.784;6.496;2023-02-13T13:16:15;10.35;;;9.85;;
351;SDS011;164;50.784;6.496;2023-02-13T13:18:49;11.05;;;9.10;;
351;SDS011;164;50.784;6.496;2023-02-13T13:21:22;11.40;;;9.65;;
351;SDS011;164;50.784;6.496;2023-02-13T13:23:52;8.80;;;8.30;;
351;SDS011;164;50.784;6.496;2023-02-13T13:26:24;9.80;;;9.30;;
351;SDS011;164;50.784;6.496;2023-02-13T13:28:57;9.98;;;8.23;;
351;SDS011;164;50.784;6.496;2023-02-13T13:31:25;8.68;;;8.18;;
351;SDS011;164;50.784;6.496;2023-02-13T13:33:53;8.13;;;7.70;;
351;SDS011;164;50.784;6.496;2023-02-13T13:36:24;9.80;;;9.30;;
351;SDS011;164;50.784;6.496;2023-02-13T13:38:59;10.40;;;8.95;;
351;SDS011;164;50.784;6.496;2023-02-13T13:41:31;7.35;;;6.95;;
351;SDS011;164;50.784;6.496;2023-02-13T13:44:03;9.07;;;8.57;;
351;SDS011;164;50.784;6.496;2023-02-13T13:46:37;7.90;;;7.50;;
351;SDS011;164;50.784;6.496;2023-02-13T13:49:10;11.35;;;8.30;;
351;SDS011;164;50.784;6.496;2023-02-13T13:51:40;8.60;;;7.53;;
351;SDS011;164;50.784;6.496;2023-02-13T13:54:24;7.43;;;7.07;;
351;SDS011;164;50.784;6.496;2023-02-13T13:57:07;11.98;;;8.88;;
351;SDS011;164;50.784;6.496;2023-02-13T14:02:35;7.00;;;5.95;;
351;SDS011;164;50.784;6.496;2023-02-13T14:05:09;7.80;;;7.30;;
351;SDS011;164;50.784;6.496;2023-02-13T14:07:43;5.97;;;5.68;;
351;SDS011;164;50.784;6.496;2023-02-13T14:10:19;6.45;;;6.00;;
351;SDS011;164;50.784;6.496;2023-02-13T14:13:07;8.75;;;8.25;;
351;SDS011;164;50.784;6.496;2023-02-13T14:18:18;6.68;;;6.28;;
351;SDS011;164;50.784;6.496;2023-02-13T14:20:50;6.53;;;6.13;;
351;SDS011;164;50.784;6.496;2023-02-13T14:23:25;6.93;;;6.18;;
351;SDS011;164;50.784;6.496;2023-02-13T14:28:36;7.00;;;6.60;;
351;SDS011;164;50.784;6.496;2023-02-13T14:31:06;9.90;;;6.53;;
351;SDS011;164;50.784;6.496;2023-02-13T14:33:39;6.72;;;5.57;;
351;SDS011;164;50.784;6.496;2023-02-13T14:36:06;6.75;;;5.80;;
351;SDS011;164;50.784;6.496;2023-02-13T14:38:35;7.03;;;6.63;;
351;SDS011;164;50.784;6.496;2023-02-13T14:41:02;7.68;;;7.28;;
351;SDS011;164;50.784;6.496;2023-02-13T14:43:39;6.45;;;6.05;;
351;SDS011;164;50.784;6.496;2023-02-13T14:46:15;6.78;;;6.40;;
351;SDS011;164;50.784;6.496;2023-02-13T14:48:45;6.32;;;5.90;;
351;SDS011;164;50.784;6.496;2023-02-13T14:51:16;5.80;;;5.53;;
351;SDS011;164;50.784;6.496;2023-02-13T14:53:53;6.13;;;5.82;;
351;SDS011;164;50.784;6.496;2023-02-13T14:56:21;5.75;;;5.45;;
351;SDS011;164;50.784;6.496;2023-02-13T14:58:51;7.00;;;6.00;;
351;SDS011;164;50.784;6.496;2023-02-13T15:01:29;8.27;;;5.85;;
351;SDS011;164;50.784;6.496;2023-02-13T15:03:58;6.15;;;5.80;;
351;SDS011;164;50.784;6.496;2023-02-13T15:06:30;5.30;;;4.60;;
351;SDS011;164;50.784;6.496;2023-02-13T15:09:00;5.70;;;4.78;;
351;SDS011;164;50.784;6.496;2023-02-13T15:11:32;5.30;;;4.57;;
351;SDS011;164;50.784;6.496;2023-02-13T15:16:58;6.30;;;4.43;;
351;SDS011;164;50.784;6.496;2023-02-13T15:19:27;5.55;;;4.75;;
351;SDS011;164;50.784;6.496;2023-02-13T15:21:56;7.93;;;5.57;;
351;SDS011;164;50.784;6.496;2023-02-13T15:24:23;4.78;;;4.47;;
351;SDS011;164;50.784;6.496;2023-02-13T15:26:58;7.45;;;5.88;;
351;SDS011;164;50.784;6.496;2023-02-13T15:29:26;5.50;;;5.20;;
351;SDS011;164;50.784;6.496;2023-02-13T15:31:53;5.82;;;5.03;;
351;SDS011;164;50.784;6.496;2023-02-13T15:34:24;4.90;;;4.60;;
351;SDS011;164;50.784;6.496;2023-02-13T15:36:51;6.28;;;4.45;;
351;SDS011;164;50.784;6.496;2023-02-13T15:39:21;4.80;;;4.30;;
351;SDS011;164;50.784;6.496;2023-02-13T15:47:20;4.03;;;3.83;;
351;SDS011;164;50.784;6.496;2023-02-13T15:49:50;4.75;;;4.45;;
351;SDS011;164;50.784;6.496;2023-02-13T15:52:20;9.30;;;4.35;;
351;SDS011;164;50.784;6.496;2023-02-13T15:54:48;5.10;;;4.80;;
351;SDS011;164;50.784;6.496;2023-02-13T15:57:16;4.20;;;3.95;;
351;SDS011;164;50.784;6.496;2023-02-13T15:59:44;5.22;;;4.88;;
351;SDS011;164;50.784;6.496;2023-02-13T16:02:13;6.43;;;4.90;;
351;SDS011;164;50.784;6.496;2023-02-13T16:04:41;4.90;;;4.60;;
351;SDS011;164;50.784;6.496;2023-02-13T16:07:11;6.07;;;4.63;;
351;SDS011;164;50.784;6.496;2023-02-13T16:09:39;5.20;;;3.95;;
351;SDS011;164;50.784;6.496;2023-02-13T16:12:11;4.53;;;4.22;;
351;SDS011;164;50.784;6.496;2023-02-13T16:14:43;5.70;;;5.40;;
351;SDS011;164;50.784;6.496;2023-02-13T16:17:15;4.95;;;4.65;;
351;SDS011;164;50.784;6.496;2023-02-13T16:19:43;6.68;;;5.70;;
351;SDS011;164;50.784;6.496;2023-02-13T16:22:20;5.10;;;4.70;;
351;SDS011;164;50.784;6.496;2023-02-13T16:24:48;5.50;;;5.20;;